createdAt,value
2022-10-19T00:01:26.393Z,83
2022-10-19T00:06:27.960Z,84
2022-10-19T00:11:30.069Z,84
2022-10-19T00:16:32.019Z,85
2022-10-19T00:21:33.322Z,84
2022-10-19T00:26:35.356Z,84
2022-10-19T00:31:37.219Z,84
2022-10-19T00:36:39.005Z,83
2022-10-19T00:41:40.668Z,84
2022-10-19T00:51:43.028Z,83
2022-10-19T01:01:45.876Z,83
2022-10-19T01:06:47.041Z,83
2022-10-19T01:11:48.752Z,84
2022-10-19T01:21:52.058Z,83
2022-10-19T01:31:55.480Z,83
2022-10-19T01:47:00.325Z,84
2022-10-19T01:52:01.579Z,84
2022-10-19T01:57:03.332Z,84
2022-10-19T02:02:04.994Z,84
2022-10-19T02:07:06.161Z,84
2022-10-19T02:12:07.524Z,84
2022-10-19T02:17:09.520Z,84
2022-10-19T02:22:11.333Z,84
2022-10-19T02:27:13.286Z,83
2022-10-19T02:32:15.353Z,84
2022-10-19T02:37:18.194Z,84
2022-10-19T02:42:18.906Z,84
2022-10-19T02:47:20.360Z,84
2022-10-19T02:52:22.179Z,84
2022-10-19T02:57:24.222Z,84
2022-10-19T03:02:25.436Z,85
2022-10-19T03:07:27.289Z,85
2022-10-19T03:12:28.692Z,84
2022-10-19T03:17:30.423Z,85
2022-10-19T03:22:32.151Z,85
2022-10-19T03:27:34.107Z,85
2022-10-19T03:32:35.723Z,85
2022-10-19T03:37:37.102Z,85
2022-10-19T03:42:38.410Z,84
2022-10-19T03:47:39.655Z,84
2022-10-19T03:52:41.750Z,84
2022-10-19T03:57:43.091Z,84
2022-10-19T04:02:44.788Z,84
2022-10-19T04:07:45.992Z,84
2022-10-19T04:12:51.629Z,84
2022-10-19T04:17:49.905Z,84
2022-10-19T04:22:51.591Z,84
2022-10-19T04:27:53.315Z,84
2022-10-19T04:32:55.105Z,85
2022-10-19T04:33:01.379Z,85
2022-10-19T04:38:02.671Z,84
2022-10-19T04:43:04.138Z,85
2022-10-19T04:48:05.901Z,85
2022-10-19T04:53:07.298Z,85
2022-10-19T04:58:08.490Z,85
2022-10-19T05:03:10.058Z,85
2022-10-19T05:08:11.927Z,84
2022-10-19T05:13:13.122Z,84
2022-10-19T05:18:14.522Z,85
2022-10-19T05:23:15.814Z,84
2022-10-19T05:28:17.835Z,85
2022-10-19T05:33:19.379Z,85
2022-10-19T05:38:21.378Z,84
2022-10-19T05:43:23.213Z,84
2022-10-19T05:48:24.791Z,84
2022-10-19T05:53:26.542Z,84
2022-10-19T05:58:28.427Z,85
2022-10-19T06:03:30.403Z,85
2022-10-19T06:08:32.264Z,85
2022-10-19T06:13:33.458Z,85
2022-10-19T06:18:35.190Z,85
2022-10-19T06:23:37.027Z,85
2022-10-19T06:28:38.670Z,85
2022-10-19T06:33:39.974Z,85
2022-10-19T06:38:41.475Z,86
2022-10-19T06:43:43.347Z,87
2022-10-19T06:48:45.262Z,88
2022-10-19T06:53:47.111Z,89
2022-10-19T06:58:49.209Z,90
2022-10-19T07:03:50.966Z,91
2022-10-19T07:08:52.958Z,91
2022-10-19T07:13:54.596Z,91
2022-10-19T07:18:55.853Z,91
2022-10-19T07:23:57.062Z,91
2022-10-19T07:28:58.340Z,91
2022-10-19T07:33:59.633Z,90
2022-10-19T07:39:01.317Z,89
2022-10-19T07:44:03.114Z,89
2022-10-19T07:49:05.395Z,89
2022-10-19T07:54:06.630Z,89
2022-10-19T07:59:08.297Z,89
2022-10-19T08:09:19.043Z,88
2022-10-19T08:14:12.765Z,89
2022-10-19T08:19:14.433Z,87
2022-10-19T08:24:16.284Z,87
2022-10-19T08:29:17.929Z,86
2022-10-19T08:34:20.106Z,86
2022-10-19T08:39:21.421Z,86
2022-10-19T08:44:22.921Z,86
2022-10-19T08:49:24.213Z,85
2022-10-19T08:54:26.424Z,85
2022-10-19T08:59:27.970Z,84
2022-10-19T09:04:30.079Z,82
2022-10-19T09:09:32.170Z,82
2022-10-19T09:14:33.467Z,81
2022-10-19T09:19:35.675Z,81
2022-10-19T09:24:37.388Z,79
2022-10-19T09:29:39.206Z,79
2022-10-19T09:34:40.429Z,79
2022-10-19T09:39:47.913Z,79
2022-10-19T09:44:43.502Z,78
2022-10-19T09:49:45.078Z,78
2022-10-19T09:54:46.535Z,77
2022-10-19T09:59:48.040Z,76
2022-10-19T10:04:49.764Z,73
2022-10-19T10:09:51.547Z,74
2022-10-19T10:14:52.760Z,73
2022-10-19T10:19:54.801Z,73
2022-10-19T10:24:55.999Z,74
2022-10-19T10:29:57.412Z,72
2022-10-19T10:35:01.158Z,71
2022-10-19T10:40:03.441Z,70
2022-10-19T10:45:02.609Z,69
2022-10-19T10:50:04.652Z,69
2022-10-19T10:55:06.254Z,68
2022-10-19T11:00:07.883Z,66
2022-10-19T11:05:09.624Z,65
2022-10-19T11:10:11.555Z,65
2022-10-19T11:15:12.773Z,63
2022-10-19T11:20:14.768Z,64
2022-10-19T11:25:16.198Z,63
2022-10-19T11:30:17.741Z,63
2022-10-19T11:35:18.991Z,64
2022-10-19T11:40:22.195Z,64
2022-10-19T11:45:22.322Z,63
2022-10-19T11:50:24.358Z,63
2022-10-19T11:55:25.937Z,64
2022-10-19T12:00:38.525Z,64
2022-10-19T12:05:28.607Z,63
2022-10-19T12:10:30.839Z,62
2022-10-19T12:15:32.011Z,62
2022-10-19T12:20:33.826Z,63
2022-10-19T12:25:35.753Z,63
2022-10-19T12:30:37.732Z,62
2022-10-19T12:35:39.600Z,61
2022-10-19T12:40:40.765Z,61
2022-10-19T12:45:42.719Z,61
2022-10-19T12:50:44.328Z,61
2022-10-19T12:55:45.761Z,61
2022-10-19T13:00:47.634Z,60
2022-10-19T13:05:49.394Z,61
2022-10-19T13:10:51.112Z,62
2022-10-19T13:15:52.400Z,63
2022-10-19T13:20:54.164Z,63
2022-10-19T13:25:56.047Z,63
2022-10-19T13:31:00.585Z,62
2022-10-19T13:35:59.160Z,61
2022-10-19T13:41:00.991Z,62
2022-10-19T13:46:02.941Z,62
2022-10-19T13:51:04.823Z,62
2022-10-19T13:56:06.383Z,62
2022-10-19T14:01:07.913Z,61
2022-10-19T14:06:09.211Z,60
2022-10-19T14:11:10.687Z,61
2022-10-19T14:16:12.340Z,61
2022-10-19T14:21:13.977Z,62
2022-10-19T14:26:15.412Z,62
2022-10-19T14:31:17.007Z,62
2022-10-19T14:36:18.817Z,62
2022-10-19T14:41:20.170Z,62
2022-10-19T14:46:21.965Z,62
2022-10-19T14:51:23.358Z,61
2022-10-19T14:56:24.410Z,62
2022-10-19T15:01:26.515Z,62
2022-10-19T15:06:27.968Z,62
2022-10-19T15:11:29.537Z,62
2022-10-19T15:16:30.827Z,62
2022-10-19T15:21:33.462Z,62
2022-10-19T15:26:34.289Z,62
2022-10-19T15:31:35.808Z,62
2022-10-19T15:36:37.514Z,63
2022-10-19T15:41:39.099Z,64
2022-10-19T16:06:47.365Z,65
2022-10-19T16:26:53.825Z,65
2022-10-19T16:36:59.514Z,66
2022-10-19T16:41:59.790Z,66
2022-10-19T16:47:01.330Z,66
2022-10-19T16:57:09.559Z,66
2022-10-19T17:02:06.545Z,66
2022-10-19T17:07:08.461Z,66
2022-10-19T17:12:10.414Z,67
2022-10-19T17:17:12.006Z,67
2022-10-19T17:22:13.428Z,68
2022-10-19T17:27:15.306Z,68
2022-10-19T17:32:16.510Z,68
2022-10-19T17:37:18.661Z,68
2022-10-19T17:42:20.452Z,69
2022-10-19T17:47:21.599Z,69
2022-10-19T17:52:23.694Z,69
2022-10-19T17:57:25.625Z,70
2022-10-19T18:02:27.738Z,70
2022-10-19T18:07:29.692Z,71
2022-10-19T18:12:31.007Z,71
2022-10-19T18:17:33.032Z,71
2022-10-19T18:22:34.543Z,72
2022-10-19T18:27:36.065Z,72
2022-10-19T18:32:37.490Z,72
2022-10-19T18:37:39.061Z,73
2022-10-19T18:42:40.952Z,73
2022-10-19T18:47:42.262Z,73
2022-10-19T18:52:43.506Z,73
2022-10-19T18:57:44.811Z,74
2022-10-19T19:02:47.318Z,74
2022-10-19T19:07:47.949Z,74
2022-10-19T19:12:49.902Z,74
2022-10-19T19:17:51.681Z,74
2022-10-19T19:22:53.681Z,74
2022-10-19T19:27:54.728Z,74
2022-10-19T19:32:56.010Z,75
2022-10-19T19:37:57.385Z,75
2022-10-19T19:42:58.723Z,75
2022-10-19T19:47:59.996Z,76
2022-10-19T19:53:01.547Z,76
2022-10-19T19:58:03.676Z,76
2022-10-19T20:03:05.335Z,77
2022-10-19T20:08:07.432Z,77
2022-10-19T20:13:09.296Z,77
2022-10-19T20:18:10.945Z,78
2022-10-19T20:23:12.420Z,78
2022-10-19T20:28:14.376Z,78
2022-10-19T20:33:15.929Z,79
2022-10-19T20:38:17.514Z,79
2022-10-19T20:43:19.597Z,78
2022-10-19T20:48:21.233Z,79
2022-10-19T20:53:22.560Z,79
2022-10-19T20:58:23.979Z,79
2022-10-19T21:03:25.417Z,80
2022-10-19T21:08:26.892Z,80
2022-10-19T21:13:28.574Z,81
2022-10-19T21:18:30.354Z,81
2022-10-19T21:18:36.674Z,81
2022-10-19T21:23:37.993Z,81
2022-10-19T21:28:40.146Z,81
2022-10-19T21:33:41.519Z,82
2022-10-19T21:38:43.053Z,82
2022-10-19T21:43:44.794Z,82
2022-10-19T21:48:46.178Z,82
2022-10-19T21:53:47.829Z,82
2022-10-19T21:58:49.700Z,82
2022-10-19T22:13:54.167Z,82
2022-10-19T22:18:55.960Z,82
2022-10-19T22:23:58.029Z,82
2022-10-19T22:28:59.966Z,82
2022-10-19T22:34:01.918Z,82
2022-10-19T22:39:03.327Z,82
2022-10-19T22:44:04.656Z,82
2022-10-19T22:49:05.807Z,82
2022-10-19T22:54:07.397Z,83
2022-10-19T22:59:09.512Z,84
2022-10-19T23:04:11.468Z,83
2022-10-19T23:09:13.700Z,84
2022-10-19T23:14:15.212Z,83
2022-10-19T23:19:16.692Z,84
2022-10-19T23:24:18.162Z,85
2022-10-19T23:29:19.957Z,85
2022-10-19T23:34:21.626Z,86
2022-10-19T23:39:23.138Z,87
2022-10-19T23:44:25.200Z,89
2022-10-19T23:49:26.886Z,90
2022-10-19T23:54:29.081Z,91
2022-10-19T23:59:30.337Z,93
